sensor_id;sensor_type;location;lat;lon;timestamp;P1;durP1;ratioP1;P2;durP2;ratioP2
24206;SDS011;12351;52.284;9.160;2022-09-21T00:00:16;5.72;;;2.90;;
24206;SDS011;12351;52.284;9.160;2022-09-21T00:03:05;5.17;;;3.02;;
24206;SDS011;12351;52.284;9.160;2022-09-21T00:06:00;7.12;;;3.37;;
24206;SDS011;12351;52.284;9.160;2022-09-21T00:08:46;7.20;;;3.20;;
24206;SDS011;12351;52.284;9.160;2022-09-21T00:11:34;5.08;;;2.98;;
24206;SDS011;12351;52.284;9.160;2022-09-21T00:14:24;6.35;;;3.30;;
24206;SDS011;12351;52.284;9.160;2022-09-21T00:17:11;9.00;;;3.00;;
24206;SDS011;12351;52.284;9.160;2022-09-21T00:19:58;5.03;;;3.17;;
24206;SDS011;12351;52.284;9.160;2022-09-21T00:22:47;7.67;;;2.85;;
24206;SDS011;12351;52.284;9.160;2022-09-21T00:25:34;5.33;;;2.85;;
24206;SDS011;12351;52.284;9.160;2022-09-21T00:28:21;4.97;;;2.90;;
24206;SDS011;12351;52.284;9.160;2022-09-21T00:31:09;5.80;;;2.77;;
24206;SDS011;12351;52.284;9.160;2022-09-21T00:33:58;6.10;;;3.05;;
24206;SDS011;12351;52.284;9.160;2022-09-21T00:36:47;7.55;;;3.30;;
24206;SDS011;12351;52.284;9.160;2022-09-21T00:39:35;5.78;;;3.00;;
24206;SDS011;12351;52.284;9.160;2022-09-21T00:42:24;4.28;;;3.05;;
24206;SDS011;12351;52.284;9.160;2022-09-21T00:45:13;4.85;;;3.37;;
24206;SDS011;12351;52.284;9.160;2022-09-21T00:48:01;7.03;;;3.30;;
24206;SDS011;12351;52.284;9.160;2022-09-21T00:50:50;6.37;;;3.37;;
24206;SDS011;12351;52.284;9.160;2022-09-21T00:53:38;5.05;;;3.40;;
24206;SDS011;12351;52.284;9.160;2022-09-21T00:56:25;4.90;;;3.00;;
24206;SDS011;12351;52.284;9.160;2022-09-21T00:59:12;7.78;;;3.87;;
24206;SDS011;12351;52.284;9.160;2022-09-21T01:02:02;4.08;;;3.17;;
24206;SDS011;12351;52.284;9.160;2022-09-21T01:04:51;9.88;;;3.42;;
24206;SDS011;12351;52.284;9.160;2022-09-21T01:07:40;7.00;;;3.15;;
24206;SDS011;12351;52.284;9.160;2022-09-21T01:10:29;7.67;;;3.40;;
24206;SDS011;12351;52.284;9.160;2022-09-21T01:21:52;8.60;;;3.67;;
24206;SDS011;12351;52.284;9.160;2022-09-21T01:24:45;9.00;;;3.65;;
24206;SDS011;12351;52.284;9.160;2022-09-21T01:27:32;10.03;;;4.10;;
24206;SDS011;12351;52.284;9.160;2022-09-21T01:30:12;6.10;;;4.07;;
24206;SDS011;12351;52.284;9.160;2022-09-21T01:33:03;6.70;;;4.22;;
24206;SDS011;12351;52.284;9.160;2022-09-21T01:35:52;6.92;;;4.00;;
24206;SDS011;12351;52.284;9.160;2022-09-21T01:38:42;5.80;;;3.98;;
24206;SDS011;12351;52.284;9.160;2022-09-21T01:41:30;6.65;;;4.30;;
24206;SDS011;12351;52.284;9.160;2022-09-21T01:44:20;6.53;;;4.05;;
24206;SDS011;12351;52.284;9.160;2022-09-21T01:47:09;11.43;;;4.20;;
24206;SDS011;12351;52.284;9.160;2022-09-21T01:49:58;9.00;;;4.50;;
24206;SDS011;12351;52.284;9.160;2022-09-21T01:52:51;8.70;;;4.58;;
24206;SDS011;12351;52.284;9.160;2022-09-21T01:55:40;8.05;;;4.58;;
24206;SDS011;12351;52.284;9.160;2022-09-21T01:58:30;8.68;;;4.40;;
24206;SDS011;12351;52.284;9.160;2022-09-21T02:01:18;7.03;;;4.50;;
24206;SDS011;12351;52.284;9.160;2022-09-21T02:04:08;7.70;;;4.60;;
24206;SDS011;12351;52.284;9.160;2022-09-21T02:06:57;7.42;;;4.35;;
24206;SDS011;12351;52.284;9.160;2022-09-21T02:09:44;10.18;;;4.55;;
24206;SDS011;12351;52.284;9.160;2022-09-21T02:12:33;7.05;;;4.22;;
24206;SDS011;12351;52.284;9.160;2022-09-21T02:15:21;9.55;;;4.37;;
24206;SDS011;12351;52.284;9.160;2022-09-21T02:18:13;11.43;;;4.67;;
24206;SDS011;12351;52.284;9.160;2022-09-21T02:21:00;6.25;;;4.35;;
24206;SDS011;12351;52.284;9.160;2022-09-21T02:26:44;6.60;;;4.33;;
24206;SDS011;12351;52.284;9.160;2022-09-21T02:40:54;6.00;;;4.78;;
24206;SDS011;12351;52.284;9.160;2022-09-21T02:43:44;11.28;;;5.00;;
24206;SDS011;12351;52.284;9.160;2022-09-21T02:46:35;5.92;;;4.25;;
24206;SDS011;12351;52.284;9.160;2022-09-21T02:49:25;7.83;;;5.03;;
24206;SDS011;12351;52.284;9.160;2022-09-21T02:52:13;7.60;;;4.70;;
24206;SDS011;12351;52.284;9.160;2022-09-21T02:55:02;7.90;;;4.78;;
24206;SDS011;12351;52.284;9.160;2022-09-21T02:57:50;12.82;;;5.28;;
24206;SDS011;12351;52.284;9.160;2022-09-21T03:00:39;10.35;;;5.53;;
24206;SDS011;12351;52.284;9.160;2022-09-21T03:03:26;8.75;;;5.33;;
24206;SDS011;12351;52.284;9.160;2022-09-21T03:06:14;7.37;;;4.97;;
24206;SDS011;12351;52.284;9.160;2022-09-21T03:09:01;7.95;;;5.00;;
24206;SDS011;12351;52.284;9.160;2022-09-21T03:11:49;9.95;;;5.20;;
24206;SDS011;12351;52.284;9.160;2022-09-21T03:14:37;11.88;;;5.00;;
24206;SDS011;12351;52.284;9.160;2022-09-21T03:17:23;10.78;;;4.62;;
24206;SDS011;12351;52.284;9.160;2022-09-21T03:20:12;9.10;;;5.00;;
24206;SDS011;12351;52.284;9.160;2022-09-21T03:23:00;6.70;;;4.47;;
24206;SDS011;12351;52.284;9.160;2022-09-21T03:25:47;7.00;;;4.85;;
24206;SDS011;12351;52.284;9.160;2022-09-21T03:28:36;8.93;;;4.62;;
24206;SDS011;12351;52.284;9.160;2022-09-21T03:31:23;8.08;;;5.15;;
24206;SDS011;12351;52.284;9.160;2022-09-21T03:34:11;10.03;;;5.05;;
24206;SDS011;12351;52.284;9.160;2022-09-21T03:36:58;9.50;;;5.50;;
24206;SDS011;12351;52.284;9.160;2022-09-21T03:39:47;9.35;;;5.42;;
24206;SDS011;12351;52.284;9.160;2022-09-21T03:42:34;9.15;;;5.85;;
24206;SDS011;12351;52.284;9.160;2022-09-21T03:45:21;10.58;;;5.25;;
24206;SDS011;12351;52.284;9.160;2022-09-21T03:48:10;9.23;;;5.10;;
24206;SDS011;12351;52.284;9.160;2022-09-21T03:50:59;9.70;;;5.70;;
24206;SDS011;12351;52.284;9.160;2022-09-21T03:53:46;6.70;;;5.10;;
24206;SDS011;12351;52.284;9.160;2022-09-21T03:56:33;6.80;;;5.08;;
24206;SDS011;12351;52.284;9.160;2022-09-21T03:59:21;8.80;;;5.00;;
24206;SDS011;12351;52.284;9.160;2022-09-21T04:02:08;6.35;;;4.62;;
24206;SDS011;12351;52.284;9.160;2022-09-21T04:04:55;9.68;;;4.78;;
24206;SDS011;12351;52.284;9.160;2022-09-21T04:07:43;7.22;;;4.72;;
24206;SDS011;12351;52.284;9.160;2022-09-21T04:10:31;9.18;;;4.62;;
24206;SDS011;12351;52.284;9.160;2022-09-21T04:13:18;7.53;;;4.60;;
24206;SDS011;12351;52.284;9.160;2022-09-21T04:16:05;6.10;;;4.42;;
24206;SDS011;12351;52.284;9.160;2022-09-21T04:18:52;7.58;;;4.80;;
24206;SDS011;12351;52.284;9.160;2022-09-21T04:21:39;6.83;;;4.72;;
24206;SDS011;12351;52.284;9.160;2022-09-21T04:24:26;5.35;;;4.33;;
24206;SDS011;12351;52.284;9.160;2022-09-21T04:27:13;7.12;;;3.92;;
24206;SDS011;12351;52.284;9.160;2022-09-21T04:29:59;9.43;;;4.55;;
24206;SDS011;12351;52.284;9.160;2022-09-21T04:32:47;9.18;;;4.12;;
24206;SDS011;12351;52.284;9.160;2022-09-21T04:35:34;11.00;;;4.33;;
24206;SDS011;12351;52.284;9.160;2022-09-21T04:38:21;9.33;;;4.30;;
24206;SDS011;12351;52.284;9.160;2022-09-21T04:41:08;10.05;;;4.15;;
24206;SDS011;12351;52.284;9.160;2022-09-21T04:43:56;8.15;;;3.92;;
24206;SDS011;12351;52.284;9.160;2022-09-21T04:46:44;6.25;;;3.83;;
24206;SDS011;12351;52.284;9.160;2022-09-21T04:49:31;7.53;;;3.60;;
24206;SDS011;12351;52.284;9.160;2022-09-21T04:52:18;4.72;;;3.15;;
24206;SDS011;12351;52.284;9.160;2022-09-21T04:55:06;7.40;;;3.10;;
24206;SDS011;12351;52.284;9.160;2022-09-21T04:57:53;5.70;;;2.95;;
24206;SDS011;12351;52.284;9.160;2022-09-21T05:00:40;6.72;;;2.80;;
24206;SDS011;12351;52.284;9.160;2022-09-21T05:03:27;5.08;;;2.50;;
24206;SDS011;12351;52.284;9.160;2022-09-21T05:06:15;5.62;;;2.02;;
24206;SDS011;12351;52.284;9.160;2022-09-21T05:09:01;4.95;;;2.05;;
24206;SDS011;12351;52.284;9.160;2022-09-21T05:11:50;5.58;;;2.30;;
24206;SDS011;12351;52.284;9.160;2022-09-21T05:14:37;5.87;;;2.58;;
24206;SDS011;12351;52.284;9.160;2022-09-21T05:17:25;4.58;;;2.40;;
24206;SDS011;12351;52.284;9.160;2022-09-21T05:20:12;5.00;;;2.00;;
24206;SDS011;12351;52.284;9.160;2022-09-21T05:23:00;3.60;;;1.65;;
24206;SDS011;12351;52.284;9.160;2022-09-21T05:25:47;5.05;;;1.98;;
24206;SDS011;12351;52.284;9.160;2022-09-21T05:28:34;6.95;;;2.12;;
24206;SDS011;12351;52.284;9.160;2022-09-21T05:39:54;5.78;;;2.58;;
24206;SDS011;12351;52.284;9.160;2022-09-21T05:42:41;7.03;;;2.90;;
24206;SDS011;12351;52.284;9.160;2022-09-21T05:45:28;3.30;;;2.67;;
24206;SDS011;12351;52.284;9.160;2022-09-21T05:48:17;9.30;;;3.45;;
24206;SDS011;12351;52.284;9.160;2022-09-21T05:51:09;7.22;;;3.80;;
24206;SDS011;12351;52.284;9.160;2022-09-21T06:05:18;9.35;;;4.10;;
24206;SDS011;12351;52.284;9.160;2022-09-21T06:08:06;6.95;;;4.30;;
24206;SDS011;12351;52.284;9.160;2022-09-21T06:10:52;7.33;;;4.45;;
24206;SDS011;12351;52.284;9.160;2022-09-21T06:13:40;8.55;;;4.47;;
24206;SDS011;12351;52.284;9.160;2022-09-21T06:16:35;6.35;;;4.45;;
24206;SDS011;12351;52.284;9.160;2022-09-21T06:19:17;8.03;;;4.35;;
24206;SDS011;12351;52.284;9.160;2022-09-21T06:22:04;7.15;;;4.25;;
24206;SDS011;12351;52.284;9.160;2022-09-21T06:24:51;9.30;;;4.22;;
24206;SDS011;12351;52.284;9.160;2022-09-21T06:27:39;7.45;;;4.05;;
24206;SDS011;12351;52.284;9.160;2022-09-21T06:30:26;6.80;;;3.70;;
24206;SDS011;12351;52.284;9.160;2022-09-21T06:33:13;7.70;;;3.95;;
24206;SDS011;12351;52.284;9.160;2022-09-21T06:36:02;4.90;;;3.45;;
24206;SDS011;12351;52.284;9.160;2022-09-21T06:38:49;6.20;;;3.33;;
24206;SDS011;12351;52.284;9.160;2022-09-21T06:41:36;5.72;;;3.22;;
24206;SDS011;12351;52.284;9.160;2022-09-21T06:44:23;8.13;;;3.40;;
24206;SDS011;12351;52.284;9.160;2022-09-21T06:47:10;8.63;;;3.25;;
24206;SDS011;12351;52.284;9.160;2022-09-21T06:49:57;6.20;;;3.05;;
24206;SDS011;12351;52.284;9.160;2022-09-21T06:52:44;8.93;;;3.00;;
24206;SDS011;12351;52.284;9.160;2022-09-21T06:55:31;8.18;;;3.10;;
24206;SDS011;12351;52.284;9.160;2022-09-21T06:58:19;7.70;;;2.80;;
24206;SDS011;12351;52.284;9.160;2022-09-21T07:01:06;4.95;;;2.50;;
24206;SDS011;12351;52.284;9.160;2022-09-21T07:03:55;5.60;;;2.55;;
24206;SDS011;12351;52.284;9.160;2022-09-21T07:06:42;7.17;;;2.75;;
24206;SDS011;12351;52.284;9.160;2022-09-21T07:09:29;9.25;;;2.67;;
24206;SDS011;12351;52.284;9.160;2022-09-21T07:12:17;7.17;;;2.33;;
24206;SDS011;12351;52.284;9.160;2022-09-21T07:15:04;7.78;;;2.62;;
24206;SDS011;12351;52.284;9.160;2022-09-21T07:17:52;6.33;;;3.15;;
24206;SDS011;12351;52.284;9.160;2022-09-21T07:20:39;7.53;;;2.70;;
24206;SDS011;12351;52.284;9.160;2022-09-21T07:23:29;9.15;;;2.55;;
24206;SDS011;12351;52.284;9.160;2022-09-21T07:26:16;5.95;;;2.22;;
24206;SDS011;12351;52.284;9.160;2022-09-21T07:29:03;6.17;;;2.02;;
24206;SDS011;12351;52.284;9.160;2022-09-21T07:31:50;7.05;;;1.85;;
24206;SDS011;12351;52.284;9.160;2022-09-21T07:34:37;6.72;;;1.37;;
24206;SDS011;12351;52.284;9.160;2022-09-21T07:37:24;3.77;;;1.02;;
24206;SDS011;12351;52.284;9.160;2022-09-21T07:40:12;5.20;;;0.98;;
24206;SDS011;12351;52.284;9.160;2022-09-21T07:42:59;4.22;;;0.90;;
24206;SDS011;12351;52.284;9.160;2022-09-21T07:48:37;5.65;;;1.10;;
24206;SDS011;12351;52.284;9.160;2022-09-21T07:51:25;5.75;;;1.00;;
24206;SDS011;12351;52.284;9.160;2022-09-21T07:54:12;7.22;;;1.30;;
24206;SDS011;12351;52.284;9.160;2022-09-21T07:56:59;9.05;;;1.10;;
24206;SDS011;12351;52.284;9.160;2022-09-21T07:59:48;7.40;;;1.20;;
24206;SDS011;12351;52.284;9.160;2022-09-21T08:02:35;6.33;;;1.37;;
24206;SDS011;12351;52.284;9.160;2022-09-21T08:05:22;5.22;;;1.25;;
24206;SDS011;12351;52.284;9.160;2022-09-21T08:08:09;4.37;;;1.25;;
24206;SDS011;12351;52.284;9.160;2022-09-21T08:13:47;8.95;;;1.60;;
24206;SDS011;12351;52.284;9.160;2022-09-21T08:16:36;6.42;;;1.25;;
24206;SDS011;12351;52.284;9.160;2022-09-21T08:19:24;8.73;;;2.25;;
24206;SDS011;12351;52.284;9.160;2022-09-21T08:22:11;9.10;;;2.25;;
24206;SDS011;12351;52.284;9.160;2022-09-21T08:24:58;7.80;;;2.20;;
24206;SDS011;12351;52.284;9.160;2022-09-21T08:27:44;5.05;;;1.60;;
24206;SDS011;12351;52.284;9.160;2022-09-21T08:30:32;9.10;;;2.40;;
24206;SDS011;12351;52.284;9.160;2022-09-21T08:33:19;4.80;;;1.50;;
24206;SDS011;12351;52.284;9.160;2022-09-21T08:36:07;11.48;;;1.98;;
24206;SDS011;12351;52.284;9.160;2022-09-21T08:38:55;6.58;;;1.80;;
24206;SDS011;12351;52.284;9.160;2022-09-21T08:50:21;8.15;;;1.75;;
24206;SDS011;12351;52.284;9.160;2022-09-21T08:55:55;6.55;;;1.22;;
24206;SDS011;12351;52.284;9.160;2022-09-21T08:58:42;4.65;;;1.12;;
24206;SDS011;12351;52.284;9.160;2022-09-21T09:04:22;6.15;;;1.27;;
24206;SDS011;12351;52.284;9.160;2022-09-21T09:09:53;5.28;;;1.37;;
24206;SDS011;12351;52.284;9.160;2022-09-21T09:12:43;4.35;;;1.10;;
24206;SDS011;12351;52.284;9.160;2022-09-21T09:21:12;5.92;;;1.10;;
24206;SDS011;12351;52.284;9.160;2022-09-21T09:24:02;6.03;;;1.80;;
24206;SDS011;12351;52.284;9.160;2022-09-21T09:32:38;7.65;;;2.05;;
24206;SDS011;12351;52.284;9.160;2022-09-21T09:35:25;7.55;;;1.60;;
24206;SDS011;12351;52.284;9.160;2022-09-21T09:38:17;5.62;;;1.70;;
24206;SDS011;12351;52.284;9.160;2022-09-21T09:41:11;6.33;;;1.50;;
24206;SDS011;12351;52.284;9.160;2022-09-21T09:52:30;4.03;;;1.00;;
24206;SDS011;12351;52.284;9.160;2022-09-21T09:58:14;6.47;;;1.17;;
24206;SDS011;12351;52.284;9.160;2022-09-21T10:00:59;6.00;;;1.00;;
24206;SDS011;12351;52.284;9.160;2022-09-21T10:03:56;5.20;;;1.00;;
24206;SDS011;12351;52.284;9.160;2022-09-21T10:06:37;6.05;;;0.90;;
24206;SDS011;12351;52.284;9.160;2022-09-21T10:09:27;7.90;;;1.32;;
24206;SDS011;12351;52.284;9.160;2022-09-21T10:12:18;6.47;;;1.20;;
24206;SDS011;12351;52.284;9.160;2022-09-21T10:15:09;6.53;;;1.60;;
24206;SDS011;12351;52.284;9.160;2022-09-21T10:17:57;8.78;;;1.20;;
24206;SDS011;12351;52.284;9.160;2022-09-21T10:23:35;8.45;;;1.40;;
24206;SDS011;12351;52.284;9.160;2022-09-21T10:26:23;4.92;;;1.17;;
24206;SDS011;12351;52.284;9.160;2022-09-21T10:37:46;4.58;;;1.00;;
24206;SDS011;12351;52.284;9.160;2022-09-21T10:40:35;4.47;;;0.88;;
24206;SDS011;12351;52.284;9.160;2022-09-21T10:46:13;4.77;;;0.93;;
24206;SDS011;12351;52.284;9.160;2022-09-21T10:49:01;7.70;;;1.20;;
24206;SDS011;12351;52.284;9.160;2022-09-21T10:51:48;3.70;;;0.82;;
24206;SDS011;12351;52.284;9.160;2022-09-21T10:54:37;4.65;;;1.10;;
24206;SDS011;12351;52.284;9.160;2022-09-21T11:05:56;6.37;;;1.03;;
24206;SDS011;12351;52.284;9.160;2022-09-21T11:08:49;8.30;;;1.20;;
24206;SDS011;12351;52.284;9.160;2022-09-21T11:22:42;8.43;;;1.00;;
24206;SDS011;12351;52.284;9.160;2022-09-21T11:25:33;3.75;;;1.17;;
24206;SDS011;12351;52.284;9.160;2022-09-21T11:28:22;6.60;;;1.27;;
24206;SDS011;12351;52.284;9.160;2022-09-21T11:48:06;6.27;;;1.10;;
24206;SDS011;12351;52.284;9.160;2022-09-21T11:50:55;7.45;;;1.35;;
24206;SDS011;12351;52.284;9.160;2022-09-21T12:02:21;5.33;;;1.17;;
24206;SDS011;12351;52.284;9.160;2022-09-21T12:05:12;3.93;;;0.93;;
24206;SDS011;12351;52.284;9.160;2022-09-21T12:08:01;4.67;;;0.93;;
24206;SDS011;12351;52.284;9.160;2022-09-21T12:25:04;4.53;;;1.20;;
24206;SDS011;12351;52.284;9.160;2022-09-21T12:27:43;4.90;;;1.20;;
24206;SDS011;12351;52.284;9.160;2022-09-21T12:30:32;3.87;;;1.10;;
24206;SDS011;12351;52.284;9.160;2022-09-21T12:36:12;3.60;;;0.97;;
24206;SDS011;12351;52.284;9.160;2022-09-21T12:44:42;3.87;;;1.10;;
24206;SDS011;12351;52.284;9.160;2022-09-21T12:53:04;3.13;;;0.93;;
24206;SDS011;12351;52.284;9.160;2022-09-21T13:10:00;3.33;;;0.87;;
24206;SDS011;12351;52.284;9.160;2022-09-21T13:12:51;4.20;;;0.93;;
24206;SDS011;12351;52.284;9.160;2022-09-21T13:15:41;4.53;;;1.10;;
24206;SDS011;12351;52.284;9.160;2022-09-21T13:21:23;3.80;;;1.00;;
24206;SDS011;12351;52.284;9.160;2022-09-21T13:27:00;4.63;;;0.80;;
24206;SDS011;12351;52.284;9.160;2022-09-21T13:29:49;4.37;;;0.70;;
24206;SDS011;12351;52.284;9.160;2022-09-21T13:54:51;5.27;;;1.10;;
24206;SDS011;12351;52.284;9.160;2022-09-21T13:57:39;3.57;;;0.90;;
24206;SDS011;12351;52.284;9.160;2022-09-21T14:00:31;3.43;;;1.00;;
24206;SDS011;12351;52.284;9.160;2022-09-21T14:03:21;4.60;;;0.90;;
24206;SDS011;12351;52.284;9.160;2022-09-21T14:06:11;3.70;;;0.70;;
24206;SDS011;12351;52.284;9.160;2022-09-21T14:09:01;7.00;;;1.00;;
24206;SDS011;12351;52.284;9.160;2022-09-21T14:11:53;3.23;;;1.03;;
24206;SDS011;12351;52.284;9.160;2022-09-21T14:14:40;3.63;;;0.93;;
24206;SDS011;12351;52.284;9.160;2022-09-21T14:20:33;3.20;;;0.90;;
24206;SDS011;12351;52.284;9.160;2022-09-21T14:28:41;3.87;;;1.02;;
24206;SDS011;12351;52.284;9.160;2022-09-21T14:31:33;3.10;;;0.83;;
24206;SDS011;12351;52.284;9.160;2022-09-21T14:34:25;4.57;;;1.40;;
24206;SDS011;12351;52.284;9.160;2022-09-21T14:40:05;6.63;;;1.27;;
24206;SDS011;12351;52.284;9.160;2022-09-21T14:42:53;4.77;;;1.00;;
24206;SDS011;12351;52.284;9.160;2022-09-21T14:48:37;2.37;;;0.80;;
24206;SDS011;12351;52.284;9.160;2022-09-21T14:54:10;2.97;;;0.83;;
24206;SDS011;12351;52.284;9.160;2022-09-21T15:02:36;3.47;;;0.87;;
24206;SDS011;12351;52.284;9.160;2022-09-21T15:11:01;3.40;;;1.20;;
24206;SDS011;12351;52.284;9.160;2022-09-21T15:19:26;3.70;;;0.90;;
24206;SDS011;12351;52.284;9.160;2022-09-21T15:22:16;3.10;;;1.20;;
24206;SDS011;12351;52.284;9.160;2022-09-21T15:25:05;5.90;;;1.03;;
24206;SDS011;12351;52.284;9.160;2022-09-21T15:27:55;3.43;;;0.80;;
24206;SDS011;12351;52.284;9.160;2022-09-21T15:30:43;4.00;;;1.20;;
24206;SDS011;12351;52.284;9.160;2022-09-21T15:33:30;5.53;;;1.07;;
24206;SDS011;12351;52.284;9.160;2022-09-21T15:36:21;2.97;;;0.87;;
24206;SDS011;12351;52.284;9.160;2022-09-21T15:47:46;4.73;;;0.90;;
24206;SDS011;12351;52.284;9.160;2022-09-21T15:50:39;2.47;;;0.80;;
24206;SDS011;12351;52.284;9.160;2022-09-21T15:53:29;3.13;;;0.70;;
24206;SDS011;12351;52.284;9.160;2022-09-21T15:59:15;2.98;;;0.90;;
24206;SDS011;12351;52.284;9.160;2022-09-21T16:02:09;4.93;;;0.83;;
24206;SDS011;12351;52.284;9.160;2022-09-21T16:04:55;2.40;;;0.70;;
24206;SDS011;12351;52.284;9.160;2022-09-21T16:07:44;3.23;;;0.70;;
24206;SDS011;12351;52.284;9.160;2022-09-21T16:10:37;6.70;;;1.03;;
24206;SDS011;12351;52.284;9.160;2022-09-21T16:13:28;5.30;;;0.80;;
24206;SDS011;12351;52.284;9.160;2022-09-21T16:16:20;2.52;;;0.70;;
24206;SDS011;12351;52.284;9.160;2022-09-21T16:19:10;3.37;;;1.00;;
24206;SDS011;12351;52.284;9.160;2022-09-21T16:24:53;2.13;;;0.70;;
24206;SDS011;12351;52.284;9.160;2022-09-21T16:38:54;2.57;;;0.90;;
24206;SDS011;12351;52.284;9.160;2022-09-21T16:41:45;3.80;;;0.90;;
24206;SDS011;12351;52.284;9.160;2022-09-21T16:44:37;2.08;;;0.90;;
24206;SDS011;12351;52.284;9.160;2022-09-21T16:47:28;3.33;;;0.90;;
24206;SDS011;12351;52.284;9.160;2022-09-21T16:50:18;1.03;;;0.60;;
24206;SDS011;12351;52.284;9.160;2022-09-21T16:53:07;3.87;;;0.90;;
24206;SDS011;12351;52.284;9.160;2022-09-21T16:55:57;5.83;;;1.20;;
24206;SDS011;12351;52.284;9.160;2022-09-21T16:58:45;3.60;;;0.80;;
24206;SDS011;12351;52.284;9.160;2022-09-21T17:01:38;2.40;;;0.70;;
24206;SDS011;12351;52.284;9.160;2022-09-21T17:04:29;5.47;;;0.90;;
24206;SDS011;12351;52.284;9.160;2022-09-21T17:07:21;3.70;;;0.80;;
24206;SDS011;12351;52.284;9.160;2022-09-21T17:10:11;3.20;;;0.83;;
24206;SDS011;12351;52.284;9.160;2022-09-21T17:13:03;3.13;;;0.60;;
24206;SDS011;12351;52.284;9.160;2022-09-21T17:15:53;4.23;;;0.80;;
24206;SDS011;12351;52.284;9.160;2022-09-21T17:18:44;3.93;;;0.73;;
24206;SDS011;12351;52.284;9.160;2022-09-21T17:21:36;1.37;;;0.50;;
24206;SDS011;12351;52.284;9.160;2022-09-21T17:24:28;2.63;;;0.73;;
24206;SDS011;12351;52.284;9.160;2022-09-21T17:27:18;7.70;;;0.80;;
24206;SDS011;12351;52.284;9.160;2022-09-21T17:30:10;2.70;;;0.70;;
24206;SDS011;12351;52.284;9.160;2022-09-21T17:33:03;2.03;;;0.80;;
24206;SDS011;12351;52.284;9.160;2022-09-21T17:35:54;5.10;;;0.83;;
24206;SDS011;12351;52.284;9.160;2022-09-21T17:38:45;1.97;;;0.60;;
24206;SDS011;12351;52.284;9.160;2022-09-21T17:41:36;2.77;;;0.77;;
24206;SDS011;12351;52.284;9.160;2022-09-21T17:47:18;4.42;;;0.78;;
24206;SDS011;12351;52.284;9.160;2022-09-21T17:52:58;5.03;;;0.68;;
24206;SDS011;12351;52.284;9.160;2022-09-21T17:55:49;2.45;;;0.70;;
24206;SDS011;12351;52.284;9.160;2022-09-21T17:58:42;4.05;;;0.70;;
24206;SDS011;12351;52.284;9.160;2022-09-21T18:07:14;4.90;;;0.80;;
24206;SDS011;12351;52.284;9.160;2022-09-21T18:10:04;4.20;;;0.70;;
24206;SDS011;12351;52.284;9.160;2022-09-21T18:12:58;2.33;;;0.70;;
24206;SDS011;12351;52.284;9.160;2022-09-21T18:15:52;3.55;;;0.90;;
24206;SDS011;12351;52.284;9.160;2022-09-21T18:21:29;5.67;;;0.70;;
24206;SDS011;12351;52.284;9.160;2022-09-21T18:24:20;3.75;;;0.80;;
24206;SDS011;12351;52.284;9.160;2022-09-21T18:27:01;4.58;;;0.70;;
24206;SDS011;12351;52.284;9.160;2022-09-21T18:29:50;5.08;;;0.70;;
24206;SDS011;12351;52.284;9.160;2022-09-21T18:55:33;1.92;;;0.62;;
24206;SDS011;12351;52.284;9.160;2022-09-21T18:58:23;2.20;;;0.60;;
24206;SDS011;12351;52.284;9.160;2022-09-21T19:01:14;5.20;;;0.70;;
24206;SDS011;12351;52.284;9.160;2022-09-21T19:04:07;2.90;;;0.70;;
24206;SDS011;12351;52.284;9.160;2022-09-21T19:06:57;4.12;;;1.00;;
24206;SDS011;12351;52.284;9.160;2022-09-21T19:09:51;3.27;;;0.72;;
24206;SDS011;12351;52.284;9.160;2022-09-21T19:24:09;2.37;;;0.60;;
24206;SDS011;12351;52.284;9.160;2022-09-21T19:35:32;5.40;;;0.78;;
24206;SDS011;12351;52.284;9.160;2022-09-21T19:38:22;2.37;;;0.68;;
24206;SDS011;12351;52.284;9.160;2022-09-21T19:52:32;3.42;;;0.57;;
24206;SDS011;12351;52.284;9.160;2022-09-21T19:55:22;4.83;;;0.93;;
24206;SDS011;12351;52.284;9.160;2022-09-21T19:58:14;4.83;;;1.10;;
24206;SDS011;12351;52.284;9.160;2022-09-21T20:01:05;6.45;;;0.98;;
24206;SDS011;12351;52.284;9.160;2022-09-21T20:03:54;3.92;;;0.70;;
24206;SDS011;12351;52.284;9.160;2022-09-21T20:06:45;3.08;;;0.62;;
24206;SDS011;12351;52.284;9.160;2022-09-21T20:09:36;3.67;;;0.90;;
24206;SDS011;12351;52.284;9.160;2022-09-21T20:12:27;6.08;;;0.90;;
24206;SDS011;12351;52.284;9.160;2022-09-21T20:15:18;3.10;;;0.90;;
24206;SDS011;12351;52.284;9.160;2022-09-21T20:21:02;2.25;;;0.70;;
24206;SDS011;12351;52.284;9.160;2022-09-21T20:23:52;4.12;;;0.78;;
24206;SDS011;12351;52.284;9.160;2022-09-21T20:26:47;3.27;;;0.50;;
24206;SDS011;12351;52.284;9.160;2022-09-21T20:29:37;2.58;;;0.70;;
24206;SDS011;12351;52.284;9.160;2022-09-21T20:32:30;4.50;;;0.85;;
24206;SDS011;12351;52.284;9.160;2022-09-21T20:35:21;3.52;;;0.70;;
24206;SDS011;12351;52.284;9.160;2022-09-21T20:38:10;7.30;;;0.70;;
24206;SDS011;12351;52.284;9.160;2022-09-21T20:41:04;1.07;;;0.60;;
24206;SDS011;12351;52.284;9.160;2022-09-21T20:43:54;3.92;;;0.70;;
24206;SDS011;12351;52.284;9.160;2022-09-21T20:46:44;2.62;;;0.53;;
24206;SDS011;12351;52.284;9.160;2022-09-21T20:49:40;2.10;;;0.78;;
24206;SDS011;12351;52.284;9.160;2022-09-21T20:52:30;4.70;;;0.70;;
24206;SDS011;12351;52.284;9.160;2022-09-21T20:55:20;2.77;;;0.50;;
24206;SDS011;12351;52.284;9.160;2022-09-21T20:58:11;4.15;;;0.75;;
24206;SDS011;12351;52.284;9.160;2022-09-21T21:01:03;2.42;;;1.12;;
24206;SDS011;12351;52.284;9.160;2022-09-21T21:03:53;3.22;;;0.68;;
24206;SDS011;12351;52.284;9.160;2022-09-21T21:06:45;6.53;;;1.00;;
24206;SDS011;12351;52.284;9.160;2022-09-21T21:09:33;2.85;;;0.93;;
24206;SDS011;12351;52.284;9.160;2022-09-21T21:12:24;3.45;;;1.40;;
24206;SDS011;12351;52.284;9.160;2022-09-21T21:15:14;3.92;;;0.78;;
24206;SDS011;12351;52.284;9.160;2022-09-21T21:18:03;2.33;;;0.50;;
24206;SDS011;12351;52.284;9.160;2022-09-21T21:20:53;6.28;;;0.60;;
24206;SDS011;12351;52.284;9.160;2022-09-21T21:23:47;3.87;;;0.70;;
24206;SDS011;12351;52.284;9.160;2022-09-21T21:26:36;7.83;;;0.53;;
24206;SDS011;12351;52.284;9.160;2022-09-21T21:29:27;3.87;;;0.95;;
24206;SDS011;12351;52.284;9.160;2022-09-21T21:32:20;6.10;;;0.80;;
24206;SDS011;12351;52.284;9.160;2022-09-21T21:35:11;3.58;;;0.78;;
24206;SDS011;12351;52.284;9.160;2022-09-21T21:38:02;3.12;;;0.70;;
24206;SDS011;12351;52.284;9.160;2022-09-21T21:40:54;2.10;;;0.60;;
24206;SDS011;12351;52.284;9.160;2022-09-21T21:43:42;2.15;;;0.60;;
24206;SDS011;12351;52.284;9.160;2022-09-21T21:46:34;4.60;;;0.70;;
24206;SDS011;12351;52.284;9.160;2022-09-21T21:49:25;4.67;;;0.50;;
24206;SDS011;12351;52.284;9.160;2022-09-21T21:52:18;4.35;;;0.60;;
24206;SDS011;12351;52.284;9.160;2022-09-21T21:55:06;2.12;;;0.60;;
24206;SDS011;12351;52.284;9.160;2022-09-21T21:57:58;4.50;;;0.80;;
24206;SDS011;12351;52.284;9.160;2022-09-21T22:00:50;2.50;;;0.60;;
24206;SDS011;12351;52.284;9.160;2022-09-21T22:03:41;2.42;;;0.68;;
24206;SDS011;12351;52.284;9.160;2022-09-21T22:06:33;5.00;;;0.70;;
24206;SDS011;12351;52.284;9.160;2022-09-21T22:09:25;3.52;;;0.60;;
24206;SDS011;12351;52.284;9.160;2022-09-21T22:12:14;2.75;;;1.22;;
24206;SDS011;12351;52.284;9.160;2022-09-21T22:15:03;1.55;;;0.57;;
24206;SDS011;12351;52.284;9.160;2022-09-21T22:17:53;5.75;;;0.75;;
24206;SDS011;12351;52.284;9.160;2022-09-21T22:20:44;2.77;;;0.82;;
24206;SDS011;12351;52.284;9.160;2022-09-21T22:23:34;4.03;;;0.70;;
24206;SDS011;12351;52.284;9.160;2022-09-21T22:26:26;4.15;;;0.90;;
24206;SDS011;12351;52.284;9.160;2022-09-21T22:29:18;3.37;;;0.55;;
24206;SDS011;12351;52.284;9.160;2022-09-21T22:32:07;1.72;;;0.50;;
24206;SDS011;12351;52.284;9.160;2022-09-21T22:34:56;3.92;;;0.60;;
24206;SDS011;12351;52.284;9.160;2022-09-21T22:37:47;3.55;;;0.50;;
24206;SDS011;12351;52.284;9.160;2022-09-21T22:40:37;2.30;;;0.60;;
24206;SDS011;12351;52.284;9.160;2022-09-21T22:43:28;3.98;;;0.70;;
24206;SDS011;12351;52.284;9.160;2022-09-21T22:46:19;4.15;;;0.90;;